createdAt,value
2017-12-03T10:54:49.523Z,1003.8
2017-12-03T10:55:51.055Z,1003.7
2017-12-03T10:56:52.731Z,1003.7
2017-12-03T10:57:56.485Z,1003.7
2017-12-03T10:58:58.106Z,1003.6
2017-12-03T11:00:00.188Z,1003.6
2017-12-03T11:01:04.921Z,1003.6
2017-12-03T11:02:08.323Z,1003.6
2017-12-03T11:03:11.922Z,1003.6
2017-12-03T11:04:13.581Z,1003.6
2017-12-03T11:05:15.063Z,1003.6
2017-12-03T11:06:18.825Z,1003.5
2017-12-03T11:07:20.822Z,1003.5
2017-12-03T11:08:22.929Z,1003.5
2017-12-03T11:09:24.615Z,1003.5
2017-12-03T11:10:31.276Z,1003.5
2017-12-03T11:12:30.121Z,1003.5
2017-12-03T11:13:38.256Z,1003.4
2017-12-03T11:15:01.315Z,1003.4
2017-12-03T11:16:03.574Z,1003.4
2017-12-03T11:17:08.278Z,1003.4
2017-12-03T11:18:09.893Z,1003.4
2017-12-03T11:19:12.636Z,1003.4
2017-12-03T11:20:15.539Z,1003.4
2017-12-03T11:21:20.969Z,1003.4
2017-12-03T11:22:23.968Z,1003.3
2017-12-03T11:23:29.485Z,1003.4
2017-12-03T11:24:30.977Z,1003.3
2017-12-03T11:25:49.385Z,1003.3
2017-12-03T11:26:54.383Z,1003.3
2017-12-03T11:28:34.756Z,1003.2
2017-12-03T11:29:37.090Z,1003.2
2017-12-03T11:30:45.682Z,1003.2
2017-12-03T11:31:48.230Z,1003.2
2017-12-03T11:32:51.030Z,1003.1
2017-12-03T11:34:02.416Z,1003.1
2017-12-03T11:35:06.711Z,1003.1
2017-12-03T11:36:10.126Z,1003.1
2017-12-03T11:37:34.224Z,1003.1
2017-12-03T11:38:41.405Z,1003.0
2017-12-03T11:39:44.363Z,1003.0
2017-12-03T11:40:46.354Z,1003.1
2017-12-03T11:41:51.884Z,1003.0
2017-12-03T11:43:03.941Z,1003.0
2017-12-03T11:44:05.714Z,1002.9
2017-12-03T11:45:08.130Z,1003.0
2017-12-03T11:46:10.394Z,1002.9
2017-12-03T11:47:12.618Z,1002.9
2017-12-03T11:48:14.796Z,1002.9
2017-12-03T11:49:21.373Z,1002.9
2017-12-03T11:50:24.639Z,1002.9
2017-12-03T11:51:29.511Z,1002.9
2017-12-03T11:52:34.254Z,1002.8
2017-12-03T11:53:36.313Z,1002.9
2017-12-03T11:54:38.353Z,1002.9
2017-12-03T11:55:40.787Z,1002.8
2017-12-03T11:56:42.749Z,1002.8
2017-12-03T11:57:44.567Z,1002.8
2017-12-03T11:58:47.544Z,1002.8
2017-12-03T11:59:49.638Z,1002.8
2017-12-03T12:00:52.301Z,1002.8
2017-12-03T12:01:54.076Z,1002.8
2017-12-03T12:02:57.185Z,1002.7
2017-12-03T12:03:59.167Z,1002.7
2017-12-03T12:05:01.278Z,1002.7
2017-12-03T12:06:03.858Z,1002.7
2017-12-03T12:07:08.291Z,1002.7
2017-12-03T12:08:11.009Z,1002.7
2017-12-03T12:09:12.876Z,1002.7
2017-12-03T12:10:14.707Z,1002.7
2017-12-03T12:11:16.793Z,1002.7
2017-12-03T12:12:18.750Z,1002.6
2017-12-03T12:13:20.971Z,1002.6
2017-12-03T12:14:23.033Z,1002.6
2017-12-03T12:15:25.165Z,1002.6
2017-12-03T12:16:27.166Z,1002.6
2017-12-03T12:17:29.302Z,1002.6
2017-12-03T12:18:31.846Z,1002.6
2017-12-03T12:19:34.298Z,1002.6
2017-12-03T12:20:36.697Z,1002.6
2017-12-03T12:21:38.808Z,1002.6
2017-12-03T12:22:42.739Z,1002.6
2017-12-03T12:23:47.733Z,1002.6
2017-12-03T12:24:56.645Z,1002.6
2017-12-03T12:25:59.815Z,1002.6
2017-12-03T12:27:03.718Z,1002.6
2017-12-03T12:28:05.694Z,1002.5
2017-12-03T12:29:08.025Z,1002.5
2017-12-03T12:30:11.401Z,1002.5
2017-12-03T12:31:13.485Z,1002.5
2017-12-03T12:32:15.749Z,1002.5
2017-12-03T12:33:18.729Z,1002.5
2017-12-03T12:34:26.779Z,1002.5
